sensor_id;sensor_type;location;lat;lon;timestamp;pressure;altitude;pressure_sealevel;temperature
24278;BMP280;12394;42.692;23.314;2023-03-23T00:01:19;94970.22;;;7.44
24278;BMP280;12394;42.692;23.314;2023-03-23T00:03:47;94978.44;;;7.49
24278;BMP280;12394;42.692;23.314;2023-03-23T00:06:13;94976.94;;;7.48
24278;BMP280;12394;42.692;23.314;2023-03-23T00:08:44;94978.06;;;7.47
24278;BMP280;12394;42.692;23.314;2023-03-23T00:11:20;94980.66;;;7.51
24278;BMP280;12394;42.692;23.314;2023-03-23T00:13:48;94972.16;;;7.54
24278;BMP280;12394;42.692;23.314;2023-03-23T00:16:19;94974.38;;;7.55
24278;BMP280;12394;42.692;23.314;2023-03-23T00:18:50;94981.81;;;7.57
24278;BMP280;12394;42.692;23.314;2023-03-23T00:21:20;94975.47;;;7.51
24278;BMP280;12394;42.692;23.314;2023-03-23T00:23:45;94971.00;;;7.55
24278;BMP280;12394;42.692;23.314;2023-03-23T00:26:12;94953.84;;;7.40
24278;BMP280;12394;42.692;23.314;2023-03-23T00:28:38;94974.00;;;7.57
24278;BMP280;12394;42.692;23.314;2023-03-23T00:31:07;94986.28;;;7.60
24278;BMP280;12394;42.692;23.314;2023-03-23T00:33:36;94989.63;;;7.57
24278;BMP280;12394;42.692;23.314;2023-03-23T00:36:07;94989.63;;;7.60
24278;BMP280;12394;42.692;23.314;2023-03-23T00:38:34;94993.38;;;7.63
24278;BMP280;12394;42.692;23.314;2023-03-23T00:41:00;94990.78;;;7.63
24278;BMP280;12394;42.692;23.314;2023-03-23T00:43:30;94992.22;;;7.57
24278;BMP280;12394;42.692;23.314;2023-03-23T00:45:56;95004.16;;;7.65
24278;BMP280;12394;42.692;23.314;2023-03-23T00:48:27;95001.97;;;7.67
24278;BMP280;12394;42.692;23.314;2023-03-23T00:50:54;95001.56;;;7.69
24278;BMP280;12394;42.692;23.314;2023-03-23T00:53:21;95007.94;;;7.71
24278;BMP280;12394;42.692;23.314;2023-03-23T00:55:48;95005.66;;;7.63
24278;BMP280;12394;42.692;23.314;2023-03-23T00:58:15;95011.63;;;7.63
24278;BMP280;12394;42.692;23.314;2023-03-23T01:00:41;95007.13;;;7.60
24278;BMP280;12394;42.692;23.314;2023-03-23T01:03:08;95015.66;;;7.60
24278;BMP280;12394;42.692;23.314;2023-03-23T01:05:37;95008.97;;;7.56
24278;BMP280;12394;42.692;23.314;2023-03-23T01:08:04;95012.28;;;7.53
24278;BMP280;12394;42.692;23.314;2023-03-23T01:10:30;95008.53;;;7.47
24278;BMP280;12394;42.692;23.314;2023-03-23T01:12:59;95005.94;;;7.47
24278;BMP280;12394;42.692;23.314;2023-03-23T01:15:26;95010.34;;;7.39
24278;BMP280;12394;42.692;23.314;2023-03-23T01:17:52;95006.25;;;7.35
24278;BMP280;12394;42.692;23.314;2023-03-23T01:20:18;95013.97;;;7.28
24278;BMP280;12394;42.692;23.314;2023-03-23T01:22:44;95001.63;;;7.14
24278;BMP280;12394;42.692;23.314;2023-03-23T01:25:11;95005.34;;;7.13
24278;BMP280;12394;42.692;23.314;2023-03-23T01:27:37;94996.91;;;7.27
24278;BMP280;12394;42.692;23.314;2023-03-23T01:30:04;94996.56;;;7.35
24278;BMP280;12394;42.692;23.314;2023-03-23T01:32:31;94994.31;;;7.27
24278;BMP280;12394;42.692;23.314;2023-03-23T01:34:57;94985.00;;;7.29
24278;BMP280;12394;42.692;23.314;2023-03-23T01:37:22;94991.81;;;7.48
24278;BMP280;12394;42.692;23.314;2023-03-23T01:39:55;94985.50;;;7.49
24278;BMP280;12394;42.692;23.314;2023-03-23T01:42:26;94979.16;;;7.43
24278;BMP280;12394;42.692;23.314;2023-03-23T01:47:21;94983.25;;;7.51
24278;BMP280;12394;42.692;23.314;2023-03-23T01:49:49;94984.03;;;7.55
24278;BMP280;12394;42.692;23.314;2023-03-23T01:52:20;94978.44;;;7.49
24278;BMP280;12394;42.692;23.314;2023-03-23T01:54:49;94978.41;;;7.46
24278;BMP280;12394;42.692;23.314;2023-03-23T01:57:17;94974.69;;;7.43
24278;BMP280;12394;42.692;23.314;2023-03-23T01:59:48;94983.22;;;7.40
24278;BMP280;12394;42.692;23.314;2023-03-23T02:02:15;94978.41;;;7.46
24278;BMP280;12394;42.692;23.314;2023-03-23T02:04:41;94976.63;;;7.57
24278;BMP280;12394;42.692;23.314;2023-03-23T02:07:07;94981.44;;;7.55
24278;BMP280;12394;42.692;23.314;2023-03-23T02:09:33;94968.75;;;7.50
24278;BMP280;12394;42.692;23.314;2023-03-23T02:11:58;94981.56;;;7.83
24278;BMP280;12394;42.692;23.314;2023-03-23T02:14:25;94985.25;;;7.82
24278;BMP280;12394;42.692;23.314;2023-03-23T02:17:02;94982.28;;;7.77
24278;BMP280;12394;42.692;23.314;2023-03-23T02:20:10;94988.97;;;7.78
24278;BMP280;12394;42.692;23.314;2023-03-23T02:41:52;94979.44;;;7.31
24278;BMP280;12394;42.692;23.314;2023-03-23T02:44:20;94993.22;;;7.31
24278;BMP280;12394;42.692;23.314;2023-03-23T02:46:48;94989.44;;;7.25
24278;BMP280;12394;42.692;23.314;2023-03-23T02:49:15;94996.84;;;7.20
24278;BMP280;12394;42.692;23.314;2023-03-23T02:51:43;94992.75;;;7.19
24278;BMP280;12394;42.692;23.314;2023-03-23T02:54:11;94994.56;;;7.14
24278;BMP280;12394;42.692;23.314;2023-03-23T02:56:39;94996.00;;;7.05
24278;BMP280;12394;42.692;23.314;2023-03-23T02:59:05;95004.19;;;7.03
24278;BMP280;12394;42.692;23.314;2023-03-23T03:04:05;95010.75;;;6.90
24278;BMP280;12394;42.692;23.314;2023-03-23T03:09:04;95011.41;;;6.77
24278;BMP280;12394;42.692;23.314;2023-03-23T03:11:34;95019.91;;;6.74
24278;BMP280;12394;42.692;23.314;2023-03-23T03:14:01;95021.69;;;6.66
24278;BMP280;12394;42.692;23.314;2023-03-23T03:21:39;95031.34;;;6.65
24278;BMP280;12394;42.692;23.314;2023-03-23T03:24:08;95013.44;;;6.57
24278;BMP280;12394;42.692;23.314;2023-03-23T03:26:38;95032.13;;;6.69
24278;BMP280;12394;42.692;23.314;2023-03-23T03:29:05;95029.09;;;6.64
24278;BMP280;12394;42.692;23.314;2023-03-23T03:31:35;95026.44;;;6.57
24278;BMP280;12394;42.692;23.314;2023-03-23T03:34:00;95023.72;;;6.46
24278;BMP280;12394;42.692;23.314;2023-03-23T03:36:31;95037.16;;;6.52
24278;BMP280;12394;42.692;23.314;2023-03-23T03:39:00;95043.81;;;6.49
24278;BMP280;12394;42.692;23.314;2023-03-23T03:41:33;95042.34;;;6.52
24278;BMP280;12394;42.692;23.314;2023-03-23T03:43:59;95039.34;;;6.50
24278;BMP280;12394;42.692;23.314;2023-03-23T03:46:24;95039.09;;;6.58
24278;BMP280;12394;42.692;23.314;2023-03-23T03:48:52;95046.94;;;6.65
24278;BMP280;12394;42.692;23.314;2023-03-23T03:51:18;95023.06;;;6.53
24278;BMP280;12394;42.692;23.314;2023-03-23T03:53:43;95028.41;;;6.67
24278;BMP280;12394;42.692;23.314;2023-03-23T03:56:09;95015.25;;;6.49
24278;BMP280;12394;42.692;23.314;2023-03-23T03:58:34;95029.75;;;6.54
24278;BMP280;12394;42.692;23.314;2023-03-23T04:01:01;95028.22;;;6.49
24278;BMP280;12394;42.692;23.314;2023-03-23T04:03:27;95029.75;;;6.54
24278;BMP280;12394;42.692;23.314;2023-03-23T04:05:54;95024.56;;;6.54
24278;BMP280;12394;42.692;23.314;2023-03-23T04:08:21;95025.63;;;6.49
24278;BMP280;12394;42.692;23.314;2023-03-23T04:10:47;95026.75;;;6.52
24278;BMP280;12394;42.692;23.314;2023-03-23T04:13:13;95029.31;;;6.48
24278;BMP280;12394;42.692;23.314;2023-03-23T04:15:38;95024.16;;;6.52
24278;BMP280;12394;42.692;23.314;2023-03-23T04:18:04;95022.97;;;6.46
24278;BMP280;12394;42.692;23.314;2023-03-23T04:20:31;95014.84;;;6.47
24278;BMP280;12394;42.692;23.314;2023-03-23T04:22:56;95031.66;;;6.60
24278;BMP280;12394;42.692;23.314;2023-03-23T04:25:21;95015.28;;;6.56
24278;BMP280;12394;42.692;23.314;2023-03-23T04:27:49;95023.53;;;6.62
24278;BMP280;12394;42.692;23.314;2023-03-23T04:30:21;95030.59;;;6.65
24278;BMP280;12394;42.692;23.314;2023-03-23T04:32:48;95023.53;;;6.65
24278;BMP280;12394;42.692;23.314;2023-03-23T04:35:22;95026.53;;;6.67
24278;BMP280;12394;42.692;23.314;2023-03-23T04:37:48;95016.84;;;6.64
24278;BMP280;12394;42.692;23.314;2023-03-23T04:40:14;95034.03;;;6.76
24278;BMP280;12394;42.692;23.314;2023-03-23T04:42:42;95032.97;;;6.81
24278;BMP280;12394;42.692;23.314;2023-03-23T04:45:13;95021.03;;;6.76
24278;BMP280;12394;42.692;23.314;2023-03-23T04:47:40;95038.97;;;6.88
24278;BMP280;12394;42.692;23.314;2023-03-23T04:50:15;95042.34;;;6.92
24278;BMP280;12394;42.692;23.314;2023-03-23T04:52:40;95039.75;;;6.92
24278;BMP280;12394;42.692;23.314;2023-03-23T04:55:11;95038.25;;;6.91
24278;BMP280;12394;42.692;23.314;2023-03-23T04:57:37;95028.56;;;6.88
24278;BMP280;12394;42.692;23.314;2023-03-23T05:00:03;95040.59;;;7.03
24278;BMP280;12394;42.692;23.314;2023-03-23T05:02:35;95035.00;;;7.05
24278;BMP280;12394;42.692;23.314;2023-03-23T05:05:00;95056.69;;;7.20
24278;BMP280;12394;42.692;23.314;2023-03-23T05:07:26;95042.16;;;7.15
24278;BMP280;12394;42.692;23.314;2023-03-23T05:09:51;95063.81;;;7.30
24278;BMP280;12394;42.692;23.314;2023-03-23T05:12:16;95054.59;;;7.36
24278;BMP280;12394;42.692;23.314;2023-03-23T05:14:42;95057.94;;;7.40
24278;BMP280;12394;42.692;23.314;2023-03-23T05:17:08;95061.66;;;7.39
24278;BMP280;12394;42.692;23.314;2023-03-23T05:19:35;95046.38;;;7.34
24278;BMP280;12394;42.692;23.314;2023-03-23T05:22:01;95057.97;;;7.47
24278;BMP280;12394;42.692;23.314;2023-03-23T05:24:31;95060.22;;;7.45
24278;BMP280;12394;42.692;23.314;2023-03-23T05:26:59;95067.63;;;7.43
24278;BMP280;12394;42.692;23.314;2023-03-23T05:29:25;95074.78;;;7.53
24278;BMP280;12394;42.692;23.314;2023-03-23T05:31:52;95070.75;;;7.66
24278;BMP280;12394;42.692;23.314;2023-03-23T05:34:18;95049.09;;;7.55
24278;BMP280;12394;42.692;23.314;2023-03-23T05:36:45;95072.63;;;7.73
24278;BMP280;12394;42.692;23.314;2023-03-23T05:39:11;95043.91;;;7.55
24278;BMP280;12394;42.692;23.314;2023-03-23T05:41:37;95089.84;;;7.84
24278;BMP280;12394;42.692;23.314;2023-03-23T05:44:21;95078.34;;;7.92
24278;BMP280;12394;42.692;23.314;2023-03-23T05:46:47;95081.34;;;7.94
24278;BMP280;12394;42.692;23.314;2023-03-23T05:49:14;95076.50;;;7.96
24278;BMP280;12394;42.692;23.314;2023-03-23T05:51:41;95087.72;;;8.11
24278;BMP280;12394;42.692;23.314;2023-03-23T05:54:07;95094.13;;;8.24
24278;BMP280;12394;42.692;23.314;2023-03-23T05:56:33;95090.41;;;8.22
24278;BMP280;12394;42.692;23.314;2023-03-23T05:58:59;95094.19;;;8.35
24278;BMP280;12394;42.692;23.314;2023-03-23T06:01:25;95085.97;;;8.33
24278;BMP280;12394;42.692;23.314;2023-03-23T06:03:51;95091.25;;;8.43
24278;BMP280;12394;42.692;23.314;2023-03-23T06:06:22;95098.66;;;8.41
24278;BMP280;12394;42.692;23.314;2023-03-23T06:08:47;95094.88;;;8.28
24278;BMP280;12394;42.692;23.314;2023-03-23T06:11:15;95106.81;;;8.29
24278;BMP280;12394;42.692;23.314;2023-03-23T06:13:41;95104.63;;;8.35
24278;BMP280;12394;42.692;23.314;2023-03-23T06:16:07;95108.78;;;8.57
24278;BMP280;12394;42.692;23.314;2023-03-23T06:18:34;95117.38;;;8.61
24278;BMP280;12394;42.692;23.314;2023-03-23T06:21:02;95113.66;;;8.66
24278;BMP280;12394;42.692;23.314;2023-03-23T06:23:28;95107.31;;;8.63
24278;BMP280;12394;42.692;23.314;2023-03-23T06:25:58;95106.28;;;8.85
24278;BMP280;12394;42.692;23.314;2023-03-23T06:28:24;95109.94;;;8.74
24278;BMP280;12394;42.692;23.314;2023-03-23T06:30:49;95111.09;;;8.83
24278;BMP280;12394;42.692;23.314;2023-03-23T06:33:15;95113.38;;;9.03
24278;BMP280;12394;42.692;23.314;2023-03-23T06:35:40;95107.03;;;9.28
24278;BMP280;12394;42.692;23.314;2023-03-23T06:38:06;95106.28;;;9.60
24278;BMP280;12394;42.692;23.314;2023-03-23T06:40:31;95118.94;;;9.82
24278;BMP280;12394;42.692;23.314;2023-03-23T06:42:57;95112.56;;;10.05
24278;BMP280;12394;42.692;23.314;2023-03-23T06:45:24;95115.53;;;10.10
24278;BMP280;12394;42.692;23.314;2023-03-23T06:47:50;95121.47;;;10.39
24278;BMP280;12394;42.692;23.314;2023-03-23T06:50:16;95121.00;;;10.58
24278;BMP280;12394;42.692;23.314;2023-03-23T06:52:46;95124.59;;;10.86
24278;BMP280;12394;42.692;23.314;2023-03-23T06:55:11;95123.72;;;11.10
24278;BMP280;12394;42.692;23.314;2023-03-23T06:57:38;95134.34;;;11.40
24278;BMP280;12394;42.692;23.314;2023-03-23T07:00:04;95129.75;;;11.55
24278;BMP280;12394;42.692;23.314;2023-03-23T07:02:32;95129.88;;;11.89
24278;BMP280;12394;42.692;23.314;2023-03-23T07:04:58;95126.41;;;12.33
24278;BMP280;12394;42.692;23.314;2023-03-23T07:07:24;95117.50;;;12.87
24278;BMP280;12394;42.692;23.314;2023-03-23T07:09:50;95138.16;;;13.43
24278;BMP280;12394;42.692;23.314;2023-03-23T07:12:15;95139.91;;;13.96
24278;BMP280;12394;42.692;23.314;2023-03-23T07:14:40;95135.34;;;14.43
24278;BMP280;12394;42.692;23.314;2023-03-23T07:17:06;95143.25;;;14.62
24278;BMP280;12394;42.692;23.314;2023-03-23T07:19:32;95137.25;;;14.98
24278;BMP280;12394;42.692;23.314;2023-03-23T07:21:58;95128.00;;;15.74
24278;BMP280;12394;42.692;23.314;2023-03-23T07:24:23;95143.59;;;16.30
24278;BMP280;12394;42.692;23.314;2023-03-23T07:26:49;95142.31;;;16.63
24278;BMP280;12394;42.692;23.314;2023-03-23T07:29:14;95135.84;;;17.06
24278;BMP280;12394;42.692;23.314;2023-03-23T07:31:40;95134.09;;;17.88
24278;BMP280;12394;42.692;23.314;2023-03-23T07:34:05;95133.41;;;18.52
24278;BMP280;12394;42.692;23.314;2023-03-23T07:36:31;95132.88;;;19.10
24278;BMP280;12394;42.692;23.314;2023-03-23T07:38:58;95138.34;;;19.46
24278;BMP280;12394;42.692;23.314;2023-03-23T07:41:24;95118.50;;;19.87
24278;BMP280;12394;42.692;23.314;2023-03-23T07:43:49;95138.84;;;19.81
24278;BMP280;12394;42.692;23.314;2023-03-23T07:46:14;95139.94;;;20.29
24278;BMP280;12394;42.692;23.314;2023-03-23T07:48:40;95143.06;;;21.06
24278;BMP280;12394;42.692;23.314;2023-03-23T07:51:06;95130.28;;;21.28
24278;BMP280;12394;42.692;23.314;2023-03-23T07:53:32;95143.44;;;21.65
24278;BMP280;12394;42.692;23.314;2023-03-23T07:55:58;95137.97;;;22.31
24278;BMP280;12394;42.692;23.314;2023-03-23T07:58:23;95134.91;;;22.61
24278;BMP280;12394;42.692;23.314;2023-03-23T08:00:49;95136.94;;;22.81
24278;BMP280;12394;42.692;23.314;2023-03-23T08:03:15;95133.72;;;22.92
24278;BMP280;12394;42.692;23.314;2023-03-23T08:05:41;95145.91;;;23.57
24278;BMP280;12394;42.692;23.314;2023-03-23T08:08:08;95147.88;;;23.62
24278;BMP280;12394;42.692;23.314;2023-03-23T08:10:35;95140.38;;;24.21
24278;BMP280;12394;42.692;23.314;2023-03-23T08:13:01;95135.22;;;24.90
24278;BMP280;12394;42.692;23.314;2023-03-23T08:15:27;95136.75;;;24.70
24278;BMP280;12394;42.692;23.314;2023-03-23T08:17:53;95129.78;;;24.78
24278;BMP280;12394;42.692;23.314;2023-03-23T08:20:22;95141.81;;;25.20
24278;BMP280;12394;42.692;23.314;2023-03-23T08:22:54;95140.34;;;25.19
24278;BMP280;12394;42.692;23.314;2023-03-23T08:25:22;95136.63;;;25.90
24278;BMP280;12394;42.692;23.314;2023-03-23T08:27:49;95135.47;;;26.89
24278;BMP280;12394;42.692;23.314;2023-03-23T08:30:17;95138.34;;;26.80
24278;BMP280;12394;42.692;23.314;2023-03-23T08:32:44;95135.44;;;26.73
24278;BMP280;12394;42.692;23.314;2023-03-23T08:35:11;95128.38;;;27.42
24278;BMP280;12394;42.692;23.314;2023-03-23T08:37:38;95121.78;;;27.32
24278;BMP280;12394;42.692;23.314;2023-03-23T08:40:04;95128.75;;;28.48
24278;BMP280;12394;42.692;23.314;2023-03-23T08:42:35;95129.41;;;30.03
24278;BMP280;12394;42.692;23.314;2023-03-23T08:45:01;95123.59;;;29.75
24278;BMP280;12394;42.692;23.314;2023-03-23T08:47:28;95120.78;;;28.72
24278;BMP280;12394;42.692;23.314;2023-03-23T08:49:53;95115.06;;;28.87
24278;BMP280;12394;42.692;23.314;2023-03-23T08:52:19;95116.03;;;29.44
24278;BMP280;12394;42.692;23.314;2023-03-23T08:54:45;95122.28;;;30.43
24278;BMP280;12394;42.692;23.314;2023-03-23T08:57:13;95101.03;;;30.53
24278;BMP280;12394;42.692;23.314;2023-03-23T08:59:40;95121.38;;;32.29
24278;BMP280;12394;42.692;23.314;2023-03-23T09:02:08;95115.75;;;31.48
24278;BMP280;12394;42.692;23.314;2023-03-23T09:04:40;95109.31;;;32.84
24278;BMP280;12394;42.692;23.314;2023-03-23T09:07:10;95119.25;;;33.51
24278;BMP280;12394;42.692;23.314;2023-03-23T09:09:38;95119.09;;;31.54
24278;BMP280;12394;42.692;23.314;2023-03-23T09:12:09;95116.31;;;31.59
24278;BMP280;12394;42.692;23.314;2023-03-23T09:14:36;95121.25;;;32.34
24278;BMP280;12394;42.692;23.314;2023-03-23T09:17:03;95129.31;;;33.15
24278;BMP280;12394;42.692;23.314;2023-03-23T09:19:29;95118.75;;;32.36
24278;BMP280;12394;42.692;23.314;2023-03-23T09:21:56;95105.47;;;33.00
24278;BMP280;12394;42.692;23.314;2023-03-23T09:24:21;95104.22;;;31.34
24278;BMP280;12394;42.692;23.314;2023-03-23T09:26:47;95098.78;;;30.89
24278;BMP280;12394;42.692;23.314;2023-03-23T09:29:13;95096.59;;;30.87
24278;BMP280;12394;42.692;23.314;2023-03-23T09:31:39;95103.44;;;29.76
24278;BMP280;12394;42.692;23.314;2023-03-23T09:34:06;95094.75;;;30.96
24278;BMP280;12394;42.692;23.314;2023-03-23T09:36:35;95105.28;;;31.84
24278;BMP280;12394;42.692;23.314;2023-03-23T09:39:01;95092.66;;;33.01
24278;BMP280;12394;42.692;23.314;2023-03-23T09:49:38;95080.94;;;27.44
24278;BMP280;12394;42.692;23.314;2023-03-23T09:54:38;95094.91;;;28.17
24278;BMP280;12394;42.692;23.314;2023-03-23T09:57:12;95080.63;;;29.04
24278;BMP280;12394;42.692;23.314;2023-03-23T10:03:05;95088.16;;;29.84
24278;BMP280;12394;42.692;23.314;2023-03-23T10:05:34;95083.00;;;29.62
24278;BMP280;12394;42.692;23.314;2023-03-23T10:08:01;95074.63;;;30.27
24278;BMP280;12394;42.692;23.314;2023-03-23T10:16:22;95081.31;;;30.90
24278;BMP280;12394;42.692;23.314;2023-03-23T10:21:23;95069.16;;;30.33
24278;BMP280;12394;42.692;23.314;2023-03-23T10:24:03;95070.69;;;31.11
24278;BMP280;12394;42.692;23.314;2023-03-23T10:28:57;95078.69;;;32.08
24278;BMP280;12394;42.692;23.314;2023-03-23T10:31:30;95074.78;;;32.30
24278;BMP280;12394;42.692;23.314;2023-03-23T10:34:02;95061.69;;;33.17
24278;BMP280;12394;42.692;23.314;2023-03-23T10:39:24;95068.41;;;32.41
24278;BMP280;12394;42.692;23.314;2023-03-23T10:41:52;95066.22;;;31.53
24278;BMP280;12394;42.692;23.314;2023-03-23T10:44:22;95064.06;;;31.25
24278;BMP280;12394;42.692;23.314;2023-03-23T10:47:05;95049.81;;;30.79
24278;BMP280;12394;42.692;23.314;2023-03-23T10:49:36;95059.38;;;31.52
24278;BMP280;12394;42.692;23.314;2023-03-23T10:52:24;95048.66;;;30.24
24278;BMP280;12394;42.692;23.314;2023-03-23T10:54:56;95054.75;;;29.69
24278;BMP280;12394;42.692;23.314;2023-03-23T10:57:26;95059.63;;;27.74
24278;BMP280;12394;42.692;23.314;2023-03-23T11:02:26;95044.53;;;28.12
24278;BMP280;12394;42.692;23.314;2023-03-23T11:05:06;95051.56;;;27.80
24278;BMP280;12394;42.692;23.314;2023-03-23T11:07:34;95042.28;;;27.70
24278;BMP280;12394;42.692;23.314;2023-03-23T11:10:11;95042.69;;;27.05
24278;BMP280;12394;42.692;23.314;2023-03-23T11:12:44;95033.41;;;26.73
24278;BMP280;12394;42.692;23.314;2023-03-23T11:15:26;95033.19;;;25.56
24278;BMP280;12394;42.692;23.314;2023-03-23T11:17:57;95038.28;;;24.49
24278;BMP280;12394;42.692;23.314;2023-03-23T11:20:24;95025.31;;;23.29
24278;BMP280;12394;42.692;23.314;2023-03-23T11:22:52;95025.06;;;22.04
24278;BMP280;12394;42.692;23.314;2023-03-23T11:25:17;95021.19;;;21.52
24278;BMP280;12394;42.692;23.314;2023-03-23T11:27:43;95020.66;;;21.15
24278;BMP280;12394;42.692;23.314;2023-03-23T11:30:18;95015.88;;;20.54
24278;BMP280;12394;42.692;23.314;2023-03-23T11:32:45;95014.69;;;20.55
24278;BMP280;12394;42.692;23.314;2023-03-23T11:35:26;95000.03;;;21.01
24278;BMP280;12394;42.692;23.314;2023-03-23T11:37:57;95003.69;;;20.80
24278;BMP280;12394;42.692;23.314;2023-03-23T11:40:28;95003.47;;;20.51
24278;BMP280;12394;42.692;23.314;2023-03-23T11:43:09;95002.09;;;19.95
24278;BMP280;12394;42.692;23.314;2023-03-23T11:45:39;95003.59;;;19.78
24278;BMP280;12394;42.692;23.314;2023-03-23T11:51:11;94996.75;;;19.40
24278;BMP280;12394;42.692;23.314;2023-03-23T11:53:53;94991.81;;;19.70
24278;BMP280;12394;42.692;23.314;2023-03-23T11:58:56;94996.22;;;19.64
24278;BMP280;12394;42.692;23.314;2023-03-23T12:07:03;94982.00;;;18.32
24278;BMP280;12394;42.692;23.314;2023-03-23T12:09:46;94981.34;;;18.50
24278;BMP280;12394;42.692;23.314;2023-03-23T12:12:38;94983.34;;;18.06
24278;BMP280;12394;42.692;23.314;2023-03-23T12:15:53;94982.59;;;18.05
24278;BMP280;12394;42.692;23.314;2023-03-23T12:43:53;94963.50;;;18.41
24278;BMP280;12394;42.692;23.314;2023-03-23T12:49:22;94951.03;;;18.51
24278;BMP280;12394;42.692;23.314;2023-03-23T12:52:06;94956.72;;;18.40
24278;BMP280;12394;42.692;23.314;2023-03-23T12:54:47;94958.38;;;18.47
24278;BMP280;12394;42.692;23.314;2023-03-23T12:57:28;94946.81;;;18.62
24278;BMP280;12394;42.692;23.314;2023-03-23T13:00:06;94947.22;;;18.52
24278;BMP280;12394;42.692;23.314;2023-03-23T13:03:00;94940.09;;;18.71
24278;BMP280;12394;42.692;23.314;2023-03-23T13:05:40;94943.19;;;18.78
24278;BMP280;12394;42.692;23.314;2023-03-23T13:08:20;94940.09;;;18.71
24278;BMP280;12394;42.692;23.314;2023-03-23T13:10:51;94940.22;;;18.36
24278;BMP280;12394;42.692;23.314;2023-03-23T13:13:22;94936.97;;;18.01
24278;BMP280;12394;42.692;23.314;2023-03-23T13:23:37;94940.19;;;17.96
24278;BMP280;12394;42.692;23.314;2023-03-23T13:26:13;94929.03;;;18.01
24278;BMP280;12394;42.692;23.314;2023-03-23T13:29:00;94924.38;;;18.14
24278;BMP280;12394;42.692;23.314;2023-03-23T13:31:31;94930.06;;;18.04
24278;BMP280;12394;42.692;23.314;2023-03-23T13:34:03;94919.19;;;18.02
24278;BMP280;12394;42.692;23.314;2023-03-23T13:36:42;94925.97;;;18.03
24278;BMP280;12394;42.692;23.314;2023-03-23T13:39:28;94919.00;;;17.96
24278;BMP280;12394;42.692;23.314;2023-03-23T13:49:52;94904.78;;;17.81
24278;BMP280;12394;42.692;23.314;2023-03-23T13:52:24;94917.41;;;17.77
24278;BMP280;12394;42.692;23.314;2023-03-23T13:57:57;94911.75;;;17.88
24278;BMP280;12394;42.692;23.314;2023-03-23T14:08:21;94904.28;;;17.95
24278;BMP280;12394;42.692;23.314;2023-03-23T14:10:59;94890.44;;;17.91
24278;BMP280;12394;42.692;23.314;2023-03-23T14:16:22;94903.75;;;17.78
24278;BMP280;12394;42.692;23.314;2023-03-23T14:18:57;94895.28;;;17.84
24278;BMP280;12394;42.692;23.314;2023-03-23T14:21:38;94892.91;;;17.86
24278;BMP280;12394;42.692;23.314;2023-03-23T14:24:15;94889.25;;;17.83
24278;BMP280;12394;42.692;23.314;2023-03-23T14:26:41;94882.88;;;17.71
24278;BMP280;12394;42.692;23.314;2023-03-23T14:29:11;94890.84;;;17.59
24278;BMP280;12394;42.692;23.314;2023-03-23T14:31:38;94884.81;;;17.58
24278;BMP280;12394;42.692;23.314;2023-03-23T14:34:13;94885.47;;;17.62
24278;BMP280;12394;42.692;23.314;2023-03-23T14:36:39;94882.34;;;17.64
24278;BMP280;12394;42.692;23.314;2023-03-23T14:39:16;94896.03;;;17.62
24278;BMP280;12394;42.692;23.314;2023-03-23T14:41:42;94900.31;;;17.69
24278;BMP280;12394;42.692;23.314;2023-03-23T14:44:17;94900.09;;;17.76
24278;BMP280;12394;42.692;23.314;2023-03-23T14:46:46;94888.50;;;17.83
24278;BMP280;12394;42.692;23.314;2023-03-23T14:49:15;94904.75;;;17.94
24278;BMP280;12394;42.692;23.314;2023-03-23T14:51:49;94888.44;;;17.73
24278;BMP280;12394;42.692;23.314;2023-03-23T14:54:21;94895.34;;;17.71
24278;BMP280;12394;42.692;23.314;2023-03-23T14:56:47;94889.75;;;17.69
24278;BMP280;12394;42.692;23.314;2023-03-23T14:59:12;94886.06;;;17.66
24278;BMP280;12394;42.692;23.314;2023-03-23T15:01:38;94895.16;;;17.65
24278;BMP280;12394;42.692;23.314;2023-03-23T15:04:10;94890.53;;;17.57
24278;BMP280;12394;42.692;23.314;2023-03-23T15:06:38;94888.13;;;17.50
24278;BMP280;12394;42.692;23.314;2023-03-23T15:09:10;94883.44;;;17.54
24278;BMP280;12394;42.692;23.314;2023-03-23T15:11:38;94885.59;;;17.46
24278;BMP280;12394;42.692;23.314;2023-03-23T15:14:18;94871.28;;;17.34
24278;BMP280;12394;42.692;23.314;2023-03-23T15:16:51;94882.84;;;17.28
24278;BMP280;12394;42.692;23.314;2023-03-23T15:19:25;94878.34;;;17.16
24278;BMP280;12394;42.692;23.314;2023-03-23T15:21:57;94879.56;;;17.02
24278;BMP280;12394;42.692;23.314;2023-03-23T15:24:38;94876.97;;;16.89
24278;BMP280;12394;42.692;23.314;2023-03-23T15:27:17;94876.88;;;16.80
24278;BMP280;12394;42.692;23.314;2023-03-23T15:29:57;94887.66;;;16.73
24278;BMP280;12394;42.692;23.314;2023-03-23T15:32:31;94890.31;;;16.73
24278;BMP280;12394;42.692;23.314;2023-03-23T15:35:09;94885.34;;;16.50
24278;BMP280;12394;42.692;23.314;2023-03-23T15:37:41;94891.41;;;16.25
24278;BMP280;12394;42.692;23.314;2023-03-23T15:40:15;94887.16;;;16.15
24278;BMP280;12394;42.692;23.314;2023-03-23T15:42:41;94889.47;;;16.00
24278;BMP280;12394;42.692;23.314;2023-03-23T15:50:11;94890.16;;;15.63
24278;BMP280;12394;42.692;23.314;2023-03-23T15:52:37;94899.44;;;15.55
24278;BMP280;12394;42.692;23.314;2023-03-23T15:55:26;94888.91;;;15.39
24278;BMP280;12394;42.692;23.314;2023-03-23T15:57:54;94910.97;;;15.45
24278;BMP280;12394;42.692;23.314;2023-03-23T16:00:21;94896.69;;;15.30
24278;BMP280;12394;42.692;23.314;2023-03-23T16:02:54;94907.09;;;15.21
24278;BMP280;12394;42.692;23.314;2023-03-23T16:05:20;94902.84;;;15.10
24278;BMP280;12394;42.692;23.314;2023-03-23T16:07:46;94908.75;;;15.14
24278;BMP280;12394;42.692;23.314;2023-03-23T16:10:16;94903.34;;;15.05
24278;BMP280;12394;42.692;23.314;2023-03-23T16:12:42;94906.38;;;15.04
24278;BMP280;12394;42.692;23.314;2023-03-23T16:15:08;94907.72;;;14.96
24278;BMP280;12394;42.692;23.314;2023-03-23T16:17:34;94909.28;;;14.93
24278;BMP280;12394;42.692;23.314;2023-03-23T16:19:59;94916.59;;;14.86
24278;BMP280;12394;42.692;23.314;2023-03-23T16:22:24;94912.25;;;14.79
24278;BMP280;12394;42.692;23.314;2023-03-23T16:24:50;94914.25;;;14.75
24278;BMP280;12394;42.692;23.314;2023-03-23T16:27:15;94906.66;;;14.77
24278;BMP280;12394;42.692;23.314;2023-03-23T16:29:41;94913.50;;;14.75